sensor_id;sensor_type;location;lat;lon;timestamp;P1;durP1;ratioP1;P2;durP2;ratioP2
4692;SDS011;11710;48.024;16.296;2023-06-26T03:37:54;16.43;;;11.40;;
4692;SDS011;11710;48.024;16.296;2023-06-26T03:40:21;16.00;;;10.60;;
4692;SDS011;11710;48.024;16.296;2023-06-26T03:42:48;15.97;;;10.40;;
4692;SDS011;11710;48.024;16.296;2023-06-26T03:45:15;10.73;;;8.20;;
4692;SDS011;11710;48.024;16.296;2023-06-26T03:47:43;10.73;;;8.97;;
4692;SDS011;11710;48.024;16.296;2023-06-26T03:50:12;13.57;;;10.70;;
4692;SDS011;11710;48.024;16.296;2023-06-26T03:52:41;13.27;;;10.20;;
4692;SDS011;11710;48.024;16.296;2023-06-26T03:55:08;13.03;;;9.57;;
4692;SDS011;11710;48.024;16.296;2023-06-26T03:57:35;11.63;;;8.60;;
4692;SDS011;11710;48.024;16.296;2023-06-26T04:00:03;11.23;;;9.20;;
4692;SDS011;11710;48.024;16.296;2023-06-26T04:02:33;10.73;;;8.50;;
4692;SDS011;11710;48.024;16.296;2023-06-26T04:05:01;11.33;;;9.43;;
4692;SDS011;11710;48.024;16.296;2023-06-26T04:07:29;11.17;;;9.03;;
4692;SDS011;11710;48.024;16.296;2023-06-26T04:09:58;11.97;;;10.00;;
4692;SDS011;11710;48.024;16.296;2023-06-26T04:12:26;14.00;;;10.93;;
4692;SDS011;11710;48.024;16.296;2023-06-26T04:14:53;10.97;;;8.83;;
4692;SDS011;11710;48.024;16.296;2023-06-26T04:17:20;10.43;;;9.23;;
4692;SDS011;11710;48.024;16.296;2023-06-26T04:19:48;11.17;;;9.43;;
4692;SDS011;11710;48.024;16.296;2023-06-26T04:22:15;10.13;;;8.97;;
4692;SDS011;11710;48.024;16.296;2023-06-26T04:24:42;12.90;;;8.60;;
4692;SDS011;11710;48.024;16.296;2023-06-26T04:27:12;12.93;;;9.70;;
4692;SDS011;11710;48.024;16.296;2023-06-26T04:29:40;14.47;;;9.10;;
4692;SDS011;11710;48.024;16.296;2023-06-26T04:32:07;9.53;;;8.53;;
4692;SDS011;11710;48.024;16.296;2023-06-26T04:34:34;10.20;;;8.50;;
4692;SDS011;11710;48.024;16.296;2023-06-26T04:37:06;10.13;;;9.13;;
4692;SDS011;11710;48.024;16.296;2023-06-26T04:39:35;13.93;;;8.90;;
4692;SDS011;11710;48.024;16.296;2023-06-26T04:42:03;9.43;;;8.50;;
4692;SDS011;11710;48.024;16.296;2023-06-26T04:44:34;9.90;;;8.10;;
4692;SDS011;11710;48.024;16.296;2023-06-26T04:47:03;9.53;;;8.53;;
4692;SDS011;11710;48.024;16.296;2023-06-26T04:49:30;8.47;;;7.67;;
4692;SDS011;11710;48.024;16.296;2023-06-26T04:51:57;11.60;;;10.40;;
4692;SDS011;11710;48.024;16.296;2023-06-26T04:54:25;9.03;;;8.20;;
4692;SDS011;11710;48.024;16.296;2023-06-26T04:56:54;8.33;;;7.53;;
4692;SDS011;11710;48.024;16.296;2023-06-26T04:59:21;8.87;;;8.07;;
4692;SDS011;11710;48.024;16.296;2023-06-26T05:01:50;8.53;;;7.73;;
4692;SDS011;11710;48.024;16.296;2023-06-26T05:04:17;9.87;;;6.87;;
4692;SDS011;11710;48.024;16.296;2023-06-26T05:06:44;8.20;;;7.50;;
4692;SDS011;11710;48.024;16.296;2023-06-26T05:09:12;7.83;;;7.03;;
4692;SDS011;11710;48.024;16.296;2023-06-26T05:11:39;7.80;;;7.00;;
4692;SDS011;11710;48.024;16.296;2023-06-26T05:14:07;8.07;;;7.27;;
4692;SDS011;11710;48.024;16.296;2023-06-26T05:16:34;8.10;;;7.30;;
4692;SDS011;11710;48.024;16.296;2023-06-26T05:19:03;8.10;;;7.30;;
4692;SDS011;11710;48.024;16.296;2023-06-26T05:21:30;8.70;;;7.30;;
4692;SDS011;11710;48.024;16.296;2023-06-26T05:23:58;7.43;;;6.73;;
4692;SDS011;11710;48.024;16.296;2023-06-26T05:26:26;9.03;;;7.27;;
4692;SDS011;11710;48.024;16.296;2023-06-26T05:28:55;8.33;;;7.33;;
4692;SDS011;11710;48.024;16.296;2023-06-26T05:31:23;10.10;;;7.80;;
4692;SDS011;11710;48.024;16.296;2023-06-26T05:33:50;12.73;;;8.93;;
4692;SDS011;11710;48.024;16.296;2023-06-26T05:36:23;11.63;;;7.40;;
4692;SDS011;11710;48.024;16.296;2023-06-26T05:38:51;9.10;;;7.67;;
4692;SDS011;11710;48.024;16.296;2023-06-26T05:41:19;8.53;;;7.27;;
4692;SDS011;11710;48.024;16.296;2023-06-26T05:43:47;13.10;;;7.47;;
4692;SDS011;11710;48.024;16.296;2023-06-26T05:46:14;9.07;;;7.63;;
4692;SDS011;11710;48.024;16.296;2023-06-26T05:48:42;9.03;;;7.10;;
4692;SDS011;11710;48.024;16.296;2023-06-26T05:51:09;8.40;;;7.40;;
4692;SDS011;11710;48.024;16.296;2023-06-26T05:53:38;10.30;;;7.83;;
4692;SDS011;11710;48.024;16.296;2023-06-26T05:56:07;8.73;;;7.67;;
4692;SDS011;11710;48.024;16.296;2023-06-26T05:58:35;9.60;;;7.90;;
4692;SDS011;11710;48.024;16.296;2023-06-26T06:01:02;9.17;;;7.80;;
4692;SDS011;11710;48.024;16.296;2023-06-26T06:03:30;8.87;;;7.97;;
4692;SDS011;11710;48.024;16.296;2023-06-26T06:05:57;8.77;;;7.57;;
4692;SDS011;11710;48.024;16.296;2023-06-26T06:08:24;7.90;;;6.80;;
4692;SDS011;11710;48.024;16.296;2023-06-26T06:10:52;12.47;;;7.63;;
4692;SDS011;11710;48.024;16.296;2023-06-26T06:13:20;9.77;;;7.60;;
4692;SDS011;11710;48.024;16.296;2023-06-26T06:15:47;9.40;;;7.20;;
4692;SDS011;11710;48.024;16.296;2023-06-26T06:18:14;7.73;;;6.93;;
4692;SDS011;11710;48.024;16.296;2023-06-26T06:20:41;7.77;;;6.93;;
4692;SDS011;11710;48.024;16.296;2023-06-26T06:23:08;8.20;;;7.40;;
4692;SDS011;11710;48.024;16.296;2023-06-26T06:25:36;9.50;;;7.33;;
4692;SDS011;11710;48.024;16.296;2023-06-26T06:28:07;9.73;;;6.63;;
4692;SDS011;11710;48.024;16.296;2023-06-26T06:30:34;8.50;;;7.60;;
4692;SDS011;11710;48.024;16.296;2023-06-26T06:33:02;7.33;;;6.30;;
4692;SDS011;11710;48.024;16.296;2023-06-26T06:35:29;8.83;;;6.27;;
4692;SDS011;11710;48.024;16.296;2023-06-26T06:37:56;6.00;;;5.10;;
4692;SDS011;11710;48.024;16.296;2023-06-26T06:40:23;8.07;;;5.73;;
4692;SDS011;11710;48.024;16.296;2023-06-26T06:42:51;6.20;;;5.00;;
4692;SDS011;11710;48.024;16.296;2023-06-26T06:45:19;5.80;;;4.70;;
4692;SDS011;11710;48.024;16.296;2023-06-26T06:47:47;7.03;;;5.67;;
4692;SDS011;11710;48.024;16.296;2023-06-26T06:50:14;5.53;;;4.87;;
4692;SDS011;11710;48.024;16.296;2023-06-26T06:52:43;7.03;;;5.00;;
4692;SDS011;11710;48.024;16.296;2023-06-26T06:55:10;6.10;;;5.50;;
4692;SDS011;11710;48.024;16.296;2023-06-26T06:57:38;5.63;;;5.10;;
4692;SDS011;11710;48.024;16.296;2023-06-26T07:00:07;6.30;;;5.07;;
4692;SDS011;11710;48.024;16.296;2023-06-26T07:02:37;5.43;;;4.80;;
4692;SDS011;11710;48.024;16.296;2023-06-26T07:05:05;5.80;;;4.83;;
4692;SDS011;11710;48.024;16.296;2023-06-26T07:07:33;7.80;;;5.07;;
4692;SDS011;11710;48.024;16.296;2023-06-26T07:10:02;5.70;;;5.10;;
4692;SDS011;11710;48.024;16.296;2023-06-26T07:12:30;5.20;;;4.53;;
4692;SDS011;11710;48.024;16.296;2023-06-26T07:14:59;7.03;;;5.20;;
4692;SDS011;11710;48.024;16.296;2023-06-26T07:17:27;7.73;;;5.60;;
4692;SDS011;11710;48.024;16.296;2023-06-26T07:19:56;6.07;;;5.20;;
4692;SDS011;11710;48.024;16.296;2023-06-26T07:22:23;6.87;;;5.40;;
4692;SDS011;11710;48.024;16.296;2023-06-26T07:24:50;6.30;;;5.70;;
4692;SDS011;11710;48.024;16.296;2023-06-26T07:27:18;5.90;;;5.10;;
4692;SDS011;11710;48.024;16.296;2023-06-26T07:29:46;7.27;;;5.33;;
4692;SDS011;11710;48.024;16.296;2023-06-26T07:32:13;8.73;;;5.20;;
4692;SDS011;11710;48.024;16.296;2023-06-26T07:34:40;5.53;;;5.03;;
4692;SDS011;11710;48.024;16.296;2023-06-26T07:37:09;5.73;;;4.57;;
4692;SDS011;11710;48.024;16.296;2023-06-26T07:39:36;6.07;;;5.47;;
4692;SDS011;11710;48.024;16.296;2023-06-26T07:42:03;6.63;;;4.80;;
4692;SDS011;11710;48.024;16.296;2023-06-26T07:44:31;6.10;;;5.50;;
4692;SDS011;11710;48.024;16.296;2023-06-26T07:46:58;7.00;;;6.00;;
4692;SDS011;11710;48.024;16.296;2023-06-26T07:49:25;6.60;;;5.37;;
4692;SDS011;11710;48.024;16.296;2023-06-26T07:51:52;7.73;;;5.10;;
4692;SDS011;11710;48.024;16.296;2023-06-26T07:54:21;5.97;;;5.10;;
4692;SDS011;11710;48.024;16.296;2023-06-26T07:56:54;5.37;;;4.87;;
4692;SDS011;11710;48.024;16.296;2023-06-26T07:59:23;6.43;;;5.70;;
4692;SDS011;11710;48.024;16.296;2023-06-26T08:01:51;6.20;;;5.60;;
4692;SDS011;11710;48.024;16.296;2023-06-26T08:04:21;8.67;;;5.63;;
4692;SDS011;11710;48.024;16.296;2023-06-26T08:06:49;8.47;;;6.00;;
4692;SDS011;11710;48.024;16.296;2023-06-26T08:09:18;7.10;;;5.87;;
4692;SDS011;11710;48.024;16.296;2023-06-26T08:11:47;6.30;;;5.70;;
4692;SDS011;11710;48.024;16.296;2023-06-26T08:14:15;6.60;;;5.50;;
4692;SDS011;11710;48.024;16.296;2023-06-26T08:16:43;5.87;;;5.27;;
4692;SDS011;11710;48.024;16.296;2023-06-26T08:19:11;6.57;;;5.40;;
4692;SDS011;11710;48.024;16.296;2023-06-26T08:21:39;7.70;;;6.13;;
4692;SDS011;11710;48.024;16.296;2023-06-26T08:24:07;6.80;;;6.10;;
4692;SDS011;11710;48.024;16.296;2023-06-26T08:26:35;7.27;;;5.90;;
4692;SDS011;11710;48.024;16.296;2023-06-26T08:29:03;7.03;;;6.30;;
4692;SDS011;11710;48.024;16.296;2023-06-26T08:31:33;7.30;;;6.03;;
4692;SDS011;11710;48.024;16.296;2023-06-26T08:34:01;7.50;;;6.23;;
4692;SDS011;11710;48.024;16.296;2023-06-26T08:36:28;7.97;;;6.40;;
4692;SDS011;11710;48.024;16.296;2023-06-26T08:38:55;8.60;;;6.20;;
4692;SDS011;11710;48.024;16.296;2023-06-26T08:41:23;6.30;;;5.40;;
4692;SDS011;11710;48.024;16.296;2023-06-26T08:43:53;6.90;;;5.93;;
4692;SDS011;11710;48.024;16.296;2023-06-26T08:46:20;6.93;;;5.80;;
4692;SDS011;11710;48.024;16.296;2023-06-26T08:48:48;7.57;;;6.30;;
4692;SDS011;11710;48.024;16.296;2023-06-26T08:51:21;7.07;;;5.87;;
4692;SDS011;11710;48.024;16.296;2023-06-26T08:53:52;7.10;;;6.40;;
4692;SDS011;11710;48.024;16.296;2023-06-26T08:56:24;8.73;;;6.40;;
4692;SDS011;11710;48.024;16.296;2023-06-26T08:58:55;9.87;;;6.73;;
4692;SDS011;11710;48.024;16.296;2023-06-26T09:01:23;7.60;;;6.60;;
4692;SDS011;11710;48.024;16.296;2023-06-26T09:03:51;6.53;;;5.87;;
4692;SDS011;11710;48.024;16.296;2023-06-26T09:06:19;7.30;;;6.60;;
4692;SDS011;11710;48.024;16.296;2023-06-26T09:08:46;7.37;;;6.57;;
4692;SDS011;11710;48.024;16.296;2023-06-26T09:11:13;6.93;;;6.23;;
4692;SDS011;11710;48.024;16.296;2023-06-26T09:13:41;7.13;;;6.27;;
4692;SDS011;11710;48.024;16.296;2023-06-26T09:16:11;8.53;;;6.40;;
4692;SDS011;11710;48.024;16.296;2023-06-26T09:18:39;8.37;;;7.30;;
4692;SDS011;11710;48.024;16.296;2023-06-26T09:21:08;7.70;;;6.30;;
4692;SDS011;11710;48.024;16.296;2023-06-26T09:23:36;7.67;;;6.87;;
4692;SDS011;11710;48.024;16.296;2023-06-26T09:26:06;8.33;;;6.90;;
4692;SDS011;11710;48.024;16.296;2023-06-26T09:28:34;7.57;;;6.23;;
4692;SDS011;11710;48.024;16.296;2023-06-26T09:31:08;7.13;;;6.13;;
4692;SDS011;11710;48.024;16.296;2023-06-26T09:33:37;6.30;;;5.70;;
4692;SDS011;11710;48.024;16.296;2023-06-26T09:36:07;6.90;;;6.20;;
4692;SDS011;11710;48.024;16.296;2023-06-26T09:38:35;7.17;;;6.33;;
4692;SDS011;11710;48.024;16.296;2023-06-26T09:41:02;6.77;;;6.07;;
4692;SDS011;11710;48.024;16.296;2023-06-26T09:43:30;7.27;;;6.50;;
4692;SDS011;11710;48.024;16.296;2023-06-26T09:45:58;8.70;;;6.50;;
4692;SDS011;11710;48.024;16.296;2023-06-26T09:48:27;7.47;;;6.67;;
4692;SDS011;11710;48.024;16.296;2023-06-26T09:50:56;8.30;;;6.77;;
4692;SDS011;11710;48.024;16.296;2023-06-26T09:53:27;6.87;;;6.17;;
4692;SDS011;11710;48.024;16.296;2023-06-26T09:55:54;6.83;;;6.13;;
4692;SDS011;11710;48.024;16.296;2023-06-26T09:58:21;7.50;;;6.60;;
4692;SDS011;11710;48.024;16.296;2023-06-26T10:00:51;7.53;;;6.27;;
4692;SDS011;11710;48.024;16.296;2023-06-26T10:03:18;6.53;;;5.83;;
4692;SDS011;11710;48.024;16.296;2023-06-26T10:05:46;8.70;;;6.37;;
4692;SDS011;11710;48.024;16.296;2023-06-26T10:08:16;7.17;;;5.63;;
4692;SDS011;11710;48.024;16.296;2023-06-26T10:10:44;6.50;;;5.50;;
4692;SDS011;11710;48.024;16.296;2023-06-26T10:13:15;6.93;;;6.23;;
4692;SDS011;11710;48.024;16.296;2023-06-26T10:15:46;6.63;;;5.93;;
4692;SDS011;11710;48.024;16.296;2023-06-26T10:18:13;6.33;;;5.53;;
4692;SDS011;11710;48.024;16.296;2023-06-26T10:20:43;6.00;;;5.40;;
4692;SDS011;11710;48.024;16.296;2023-06-26T10:23:13;6.97;;;6.00;;
4692;SDS011;11710;48.024;16.296;2023-06-26T10:25:44;6.57;;;5.97;;
4692;SDS011;11710;48.024;16.296;2023-06-26T10:28:14;6.67;;;5.97;;
4692;SDS011;11710;48.024;16.296;2023-06-26T10:30:42;7.03;;;6.33;;
4692;SDS011;11710;48.024;16.296;2023-06-26T10:33:12;6.60;;;5.70;;
4692;SDS011;11710;48.024;16.296;2023-06-26T10:35:42;6.90;;;6.20;;
4692;SDS011;11710;48.024;16.296;2023-06-26T10:38:10;6.47;;;5.50;;
4692;SDS011;11710;48.024;16.296;2023-06-26T10:40:42;6.50;;;5.43;;
4692;SDS011;11710;48.024;16.296;2023-06-26T10:43:11;8.00;;;6.20;;
4692;SDS011;11710;48.024;16.296;2023-06-26T10:45:43;8.90;;;5.77;;
4692;SDS011;11710;48.024;16.296;2023-06-26T10:48:17;6.83;;;6.13;;
4692;SDS011;11710;48.024;16.296;2023-06-26T10:50:46;6.33;;;5.73;;
4692;SDS011;11710;48.024;16.296;2023-06-26T10:53:14;15.70;;;6.40;;
4692;SDS011;11710;48.024;16.296;2023-06-26T10:55:55;51.17;;;12.30;;
4692;SDS011;11710;48.024;16.296;2023-06-26T10:58:26;27.00;;;8.37;;
4692;SDS011;11710;48.024;16.296;2023-06-26T11:03:48;18.60;;;8.10;;
4692;SDS011;11710;48.024;16.296;2023-06-26T11:06:27;15.87;;;7.00;;
4692;SDS011;11710;48.024;16.296;2023-06-26T11:09:00;7.10;;;6.40;;
4692;SDS011;11710;48.024;16.296;2023-06-26T11:14:33;6.63;;;5.30;;
4692;SDS011;11710;48.024;16.296;2023-06-26T11:17:04;6.60;;;5.27;;
4692;SDS011;11710;48.024;16.296;2023-06-26T11:19:32;6.43;;;4.80;;
4692;SDS011;11710;48.024;16.296;2023-06-26T11:22:01;5.63;;;5.07;;
4692;SDS011;11710;48.024;16.296;2023-06-26T11:24:30;5.80;;;5.23;;
4692;SDS011;11710;48.024;16.296;2023-06-26T11:27:04;7.43;;;5.40;;
4692;SDS011;11710;48.024;16.296;2023-06-26T11:29:31;5.90;;;5.20;;
4692;SDS011;11710;48.024;16.296;2023-06-26T11:32:03;5.77;;;5.17;;
4692;SDS011;11710;48.024;16.296;2023-06-26T11:34:32;5.07;;;4.53;;
4692;SDS011;11710;48.024;16.296;2023-06-26T11:37:00;5.43;;;4.90;;
4692;SDS011;11710;48.024;16.296;2023-06-26T11:39:29;5.80;;;4.53;;
4692;SDS011;11710;48.024;16.296;2023-06-26T11:41:56;6.70;;;5.13;;
4692;SDS011;11710;48.024;16.296;2023-06-26T11:44:26;5.93;;;5.33;;
4692;SDS011;11710;48.024;16.296;2023-06-26T11:46:56;5.80;;;5.20;;
4692;SDS011;11710;48.024;16.296;2023-06-26T11:49:23;5.40;;;4.90;;
4692;SDS011;11710;48.024;16.296;2023-06-26T11:51:52;5.80;;;5.20;;
4692;SDS011;11710;48.024;16.296;2023-06-26T11:54:26;7.10;;;5.70;;
4692;SDS011;11710;48.024;16.296;2023-06-26T11:56:54;6.50;;;5.57;;
4692;SDS011;11710;48.024;16.296;2023-06-26T11:59:37;5.50;;;5.00;;
4692;SDS011;11710;48.024;16.296;2023-06-26T12:02:06;6.23;;;5.20;;
4692;SDS011;11710;48.024;16.296;2023-06-26T12:04:35;7.63;;;5.60;;
4692;SDS011;11710;48.024;16.296;2023-06-26T12:07:05;6.20;;;5.57;;
4692;SDS011;11710;48.024;16.296;2023-06-26T12:09:38;5.27;;;4.77;;
4692;SDS011;11710;48.024;16.296;2023-06-26T12:12:07;5.73;;;5.20;;
4692;SDS011;11710;48.024;16.296;2023-06-26T12:14:36;5.90;;;5.33;;
4692;SDS011;11710;48.024;16.296;2023-06-26T12:17:08;6.77;;;5.70;;
4692;SDS011;11710;48.024;16.296;2023-06-26T12:19:37;5.30;;;4.80;;
4692;SDS011;11710;48.024;16.296;2023-06-26T12:22:08;6.03;;;5.20;;
4692;SDS011;11710;48.024;16.296;2023-06-26T12:24:37;6.30;;;5.10;;
4692;SDS011;11710;48.024;16.296;2023-06-26T12:27:07;6.20;;;5.40;;
4692;SDS011;11710;48.024;16.296;2023-06-26T12:29:37;6.00;;;5.40;;
4692;SDS011;11710;48.024;16.296;2023-06-26T12:32:08;5.60;;;5.10;;
4692;SDS011;11710;48.024;16.296;2023-06-26T12:34:36;5.87;;;5.17;;
4692;SDS011;11710;48.024;16.296;2023-06-26T12:37:06;6.80;;;5.30;;
4692;SDS011;11710;48.024;16.296;2023-06-26T12:39:47;5.70;;;5.13;;
4692;SDS011;11710;48.024;16.296;2023-06-26T12:42:16;6.67;;;5.97;;
4692;SDS011;11710;48.024;16.296;2023-06-26T12:44:45;8.00;;;5.70;;
4692;SDS011;11710;48.024;16.296;2023-06-26T12:47:14;6.30;;;5.40;;
4692;SDS011;11710;48.024;16.296;2023-06-26T12:49:41;5.97;;;5.30;;
4692;SDS011;11710;48.024;16.296;2023-06-26T12:52:10;6.00;;;5.40;;
4692;SDS011;11710;48.024;16.296;2023-06-26T12:54:39;7.47;;;5.90;;
4692;SDS011;11710;48.024;16.296;2023-06-26T12:57:07;7.23;;;5.63;;
4692;SDS011;11710;48.024;16.296;2023-06-26T12:59:35;6.10;;;5.50;;
4692;SDS011;11710;48.024;16.296;2023-06-26T13:02:05;6.10;;;5.50;;
4692;SDS011;11710;48.024;16.296;2023-06-26T13:04:33;6.27;;;5.67;;
4692;SDS011;11710;48.024;16.296;2023-06-26T13:07:01;6.80;;;6.00;;
4692;SDS011;11710;48.024;16.296;2023-06-26T13:09:32;8.23;;;5.83;;
4692;SDS011;11710;48.024;16.296;2023-06-26T13:12:02;7.10;;;6.40;;
4692;SDS011;11710;48.024;16.296;2023-06-26T13:14:31;7.20;;;6.37;;
4692;SDS011;11710;48.024;16.296;2023-06-26T13:16:58;7.40;;;6.70;;
4692;SDS011;11710;48.024;16.296;2023-06-26T13:19:28;11.60;;;7.10;;
4692;SDS011;11710;48.024;16.296;2023-06-26T13:21:55;7.43;;;6.63;;
4692;SDS011;11710;48.024;16.296;2023-06-26T13:24:22;7.20;;;6.50;;
4692;SDS011;11710;48.024;16.296;2023-06-26T13:26:50;7.50;;;6.50;;
4692;SDS011;11710;48.024;16.296;2023-06-26T13:29:17;6.77;;;6.07;;
4692;SDS011;11710;48.024;16.296;2023-06-26T13:31:45;7.47;;;6.77;;
4692;SDS011;11710;48.024;16.296;2023-06-26T13:34:20;7.37;;;6.37;;
4692;SDS011;11710;48.024;16.296;2023-06-26T13:36:49;8.80;;;6.80;;
4692;SDS011;11710;48.024;16.296;2023-06-26T13:39:17;7.90;;;6.80;;
4692;SDS011;11710;48.024;16.296;2023-06-26T13:41:45;7.63;;;6.63;;
4692;SDS011;11710;48.024;16.296;2023-06-26T13:44:12;8.33;;;7.47;;
4692;SDS011;11710;48.024;16.296;2023-06-26T13:46:42;7.77;;;6.97;;
4692;SDS011;11710;48.024;16.296;2023-06-26T13:49:09;7.50;;;6.80;;
4692;SDS011;11710;48.024;16.296;2023-06-26T13:51:37;7.67;;;6.90;;
4692;SDS011;11710;48.024;16.296;2023-06-26T13:54:12;8.03;;;6.97;;
4692;SDS011;11710;48.024;16.296;2023-06-26T13:56:39;7.50;;;6.80;;
4692;SDS011;11710;48.024;16.296;2023-06-26T13:59:06;9.30;;;7.90;;
4692;SDS011;11710;48.024;16.296;2023-06-26T14:01:33;8.67;;;7.77;;
4692;SDS011;11710;48.024;16.296;2023-06-26T14:04:01;8.10;;;7.30;;
4692;SDS011;11710;48.024;16.296;2023-06-26T14:06:28;9.13;;;7.73;;
4692;SDS011;11710;48.024;16.296;2023-06-26T14:08:57;9.00;;;8.10;;
4692;SDS011;11710;48.024;16.296;2023-06-26T14:11:26;9.53;;;7.70;;
4692;SDS011;11710;48.024;16.296;2023-06-26T14:13:54;8.03;;;7.23;;
4692;SDS011;11710;48.024;16.296;2023-06-26T14:16:21;8.37;;;7.40;;
4692;SDS011;11710;48.024;16.296;2023-06-26T14:18:48;8.70;;;7.80;;
4692;SDS011;11710;48.024;16.296;2023-06-26T14:21:15;8.80;;;7.90;;
4692;SDS011;11710;48.024;16.296;2023-06-26T14:23:42;8.10;;;7.30;;
4692;SDS011;11710;48.024;16.296;2023-06-26T14:26:09;8.60;;;7.70;;
4692;SDS011;11710;48.024;16.296;2023-06-26T14:28:39;9.30;;;7.80;;
4692;SDS011;11710;48.024;16.296;2023-06-26T14:31:06;8.50;;;7.43;;
4692;SDS011;11710;48.024;16.296;2023-06-26T14:33:33;8.90;;;8.00;;
4692;SDS011;11710;48.024;16.296;2023-06-26T14:36:00;9.40;;;8.10;;
4692;SDS011;11710;48.024;16.296;2023-06-26T14:38:28;8.30;;;7.50;;
4692;SDS011;11710;48.024;16.296;2023-06-26T14:40:56;8.17;;;7.30;;
4692;SDS011;11710;48.024;16.296;2023-06-26T14:43:23;8.27;;;7.50;;
4692;SDS011;11710;48.024;16.296;2023-06-26T14:45:51;8.33;;;7.43;;
4692;SDS011;11710;48.024;16.296;2023-06-26T14:48:19;8.43;;;7.63;;
4692;SDS011;11710;48.024;16.296;2023-06-26T14:50:46;8.23;;;7.43;;
4692;SDS011;11710;48.024;16.296;2023-06-26T14:53:13;8.47;;;7.50;;
4692;SDS011;11710;48.024;16.296;2023-06-26T14:55:40;8.77;;;7.97;;
4692;SDS011;11710;48.024;16.296;2023-06-26T14:58:08;8.37;;;7.57;;
4692;SDS011;11710;48.024;16.296;2023-06-26T15:00:35;9.00;;;8.10;;
4692;SDS011;11710;48.024;16.296;2023-06-26T15:03:04;8.83;;;7.27;;
4692;SDS011;11710;48.024;16.296;2023-06-26T15:05:31;8.70;;;7.77;;
4692;SDS011;11710;48.024;16.296;2023-06-26T15:07:58;9.13;;;7.60;;
4692;SDS011;11710;48.024;16.296;2023-06-26T15:10:25;8.87;;;7.93;;
4692;SDS011;11710;48.024;16.296;2023-06-26T15:12:53;8.63;;;7.60;;
4692;SDS011;11710;48.024;16.296;2023-06-26T15:15:20;8.97;;;8.07;;
4692;SDS011;11710;48.024;16.296;2023-06-26T15:17:47;8.27;;;7.47;;
4692;SDS011;11710;48.024;16.296;2023-06-26T15:20:16;7.50;;;6.80;;
4692;SDS011;11710;48.024;16.296;2023-06-26T15:22:43;8.30;;;7.57;;
4692;SDS011;11710;48.024;16.296;2023-06-26T15:25:10;8.47;;;7.43;;
4692;SDS011;11710;48.024;16.296;2023-06-26T15:27:38;10.00;;;7.33;;
4692;SDS011;11710;48.024;16.296;2023-06-26T15:30:06;8.67;;;7.77;;
4692;SDS011;11710;48.024;16.296;2023-06-26T15:32:34;7.63;;;6.90;;
4692;SDS011;11710;48.024;16.296;2023-06-26T15:35:01;9.30;;;7.70;;
4692;SDS011;11710;48.024;16.296;2023-06-26T15:37:30;7.30;;;6.50;;
4692;SDS011;11710;48.024;16.296;2023-06-26T15:39:58;7.97;;;7.17;;
4692;SDS011;11710;48.024;16.296;2023-06-26T15:42:25;7.90;;;7.10;;
4692;SDS011;11710;48.024;16.296;2023-06-26T15:44:54;8.50;;;7.37;;
4692;SDS011;11710;48.024;16.296;2023-06-26T15:47:21;8.43;;;7.53;;
4692;SDS011;11710;48.024;16.296;2023-06-26T15:49:48;8.23;;;7.43;;
4692;SDS011;11710;48.024;16.296;2023-06-26T15:52:15;8.93;;;6.90;;
4692;SDS011;11710;48.024;16.296;2023-06-26T15:54:44;7.90;;;7.13;;
4692;SDS011;11710;48.024;16.296;2023-06-26T15:57:11;9.27;;;8.30;;
4692;SDS011;11710;48.024;16.296;2023-06-26T15:59:39;9.70;;;7.80;;
4692;SDS011;11710;48.024;16.296;2023-06-26T16:02:06;8.33;;;7.53;;
4692;SDS011;11710;48.024;16.296;2023-06-26T16:04:33;8.43;;;7.60;;
4692;SDS011;11710;48.024;16.296;2023-06-26T16:07:00;8.07;;;7.27;;
4692;SDS011;11710;48.024;16.296;2023-06-26T16:09:27;9.77;;;8.07;;
4692;SDS011;11710;48.024;16.296;2023-06-26T16:11:56;8.20;;;7.40;;
4692;SDS011;11710;48.024;16.296;2023-06-26T16:14:23;8.80;;;7.60;;
4692;SDS011;11710;48.024;16.296;2023-06-26T16:16:50;8.40;;;7.50;;
4692;SDS011;11710;48.024;16.296;2023-06-26T16:19:18;9.27;;;7.47;;
4692;SDS011;11710;48.024;16.296;2023-06-26T16:21:45;9.17;;;7.73;;
4692;SDS011;11710;48.024;16.296;2023-06-26T16:24:12;8.57;;;7.47;;
4692;SDS011;11710;48.024;16.296;2023-06-26T16:26:40;9.10;;;7.90;;
4692;SDS011;11710;48.024;16.296;2023-06-26T16:29:08;9.87;;;7.80;;
4692;SDS011;11710;48.024;16.296;2023-06-26T16:31:36;8.27;;;7.47;;
4692;SDS011;11710;48.024;16.296;2023-06-26T16:34:03;8.37;;;7.57;;
4692;SDS011;11710;48.024;16.296;2023-06-26T16:36:30;8.70;;;7.80;;
4692;SDS011;11710;48.024;16.296;2023-06-26T16:38:57;9.20;;;7.97;;
4692;SDS011;11710;48.024;16.296;2023-06-26T16:41:26;8.40;;;7.60;;
4692;SDS011;11710;48.024;16.296;2023-06-26T16:43:53;9.63;;;7.60;;
4692;SDS011;11710;48.024;16.296;2023-06-26T16:46:22;8.43;;;7.63;;
4692;SDS011;11710;48.024;16.296;2023-06-26T16:48:49;7.80;;;7.00;;
4692;SDS011;11710;48.024;16.296;2023-06-26T16:51:18;8.03;;;7.20;;
4692;SDS011;11710;48.024;16.296;2023-06-26T16:53:46;8.10;;;7.20;;
4692;SDS011;11710;48.024;16.296;2023-06-26T16:56:13;8.63;;;7.37;;
4692;SDS011;11710;48.024;16.296;2023-06-26T16:58:41;7.67;;;6.97;;
4692;SDS011;11710;48.024;16.296;2023-06-26T17:01:08;8.83;;;7.93;;
4692;SDS011;11710;48.024;16.296;2023-06-26T17:03:36;9.30;;;7.40;;
4692;SDS011;11710;48.024;16.296;2023-06-26T17:06:04;8.20;;;7.40;;
4692;SDS011;11710;48.024;16.296;2023-06-26T17:08:33;8.27;;;7.47;;
4692;SDS011;11710;48.024;16.296;2023-06-26T17:11:00;10.57;;;9.47;;
4692;SDS011;11710;48.024;16.296;2023-06-26T17:13:27;8.70;;;7.47;;
4692;SDS011;11710;48.024;16.296;2023-06-26T17:15:54;9.90;;;8.10;;
4692;SDS011;11710;48.024;16.296;2023-06-26T17:18:21;9.30;;;7.73;;
4692;SDS011;11710;48.024;16.296;2023-06-26T17:20:50;8.50;;;7.60;;
4692;SDS011;11710;48.024;16.296;2023-06-26T17:23:17;8.23;;;7.40;;
4692;SDS011;11710;48.024;16.296;2023-06-26T17:25:44;9.33;;;7.77;;
4692;SDS011;11710;48.024;16.296;2023-06-26T17:28:12;9.13;;;7.87;;
4692;SDS011;11710;48.024;16.296;2023-06-26T17:30:39;8.00;;;7.17;;
4692;SDS011;11710;48.024;16.296;2023-06-26T17:33:07;9.60;;;8.40;;
4692;SDS011;11710;48.024;16.296;2023-06-26T17:35:34;8.93;;;8.03;;
4692;SDS011;11710;48.024;16.296;2023-06-26T17:38:04;9.97;;;8.00;;
4692;SDS011;11710;48.024;16.296;2023-06-26T17:40:32;10.23;;;8.57;;
4692;SDS011;11710;48.024;16.296;2023-06-26T17:43:00;10.47;;;8.10;;
4692;SDS011;11710;48.024;16.296;2023-06-26T17:45:27;11.80;;;8.97;;
4692;SDS011;11710;48.024;16.296;2023-06-26T17:47:54;9.73;;;8.60;;
4692;SDS011;11710;48.024;16.296;2023-06-26T17:50:22;11.77;;;9.47;;
4692;SDS011;11710;48.024;16.296;2023-06-26T17:52:49;11.43;;;9.03;;
4692;SDS011;11710;48.024;16.296;2023-06-26T17:55:18;9.30;;;8.37;;
4692;SDS011;11710;48.024;16.296;2023-06-26T17:57:45;8.00;;;7.30;;
4692;SDS011;11710;48.024;16.296;2023-06-26T18:00:13;6.90;;;6.30;;
4692;SDS011;11710;48.024;16.296;2023-06-26T18:02:41;7.67;;;6.90;;
4692;SDS011;11710;48.024;16.296;2023-06-26T18:05:09;7.93;;;7.10;;
4692;SDS011;11710;48.024;16.296;2023-06-26T18:07:36;8.63;;;7.50;;
4692;SDS011;11710;48.024;16.296;2023-06-26T18:10:05;7.40;;;6.43;;
4692;SDS011;11710;48.024;16.296;2023-06-26T18:12:35;6.53;;;5.70;;
4692;SDS011;11710;48.024;16.296;2023-06-26T18:15:02;6.40;;;5.80;;
4692;SDS011;11710;48.024;16.296;2023-06-26T18:17:30;6.53;;;5.83;;
4692;SDS011;11710;48.024;16.296;2023-06-26T18:19:57;7.37;;;6.37;;
4692;SDS011;11710;48.024;16.296;2023-06-26T18:22:24;8.17;;;6.10;;
4692;SDS011;11710;48.024;16.296;2023-06-26T18:24:52;7.03;;;6.27;;
4692;SDS011;11710;48.024;16.296;2023-06-26T18:27:19;7.17;;;5.97;;
4692;SDS011;11710;48.024;16.296;2023-06-26T18:29:47;7.30;;;5.73;;
4692;SDS011;11710;48.024;16.296;2023-06-26T18:32:14;8.77;;;6.53;;
4692;SDS011;11710;48.024;16.296;2023-06-26T18:34:42;6.40;;;5.80;;